createdAt,value
2023-05-14T00:00:51.070Z,78.6188
2023-05-14T00:01:52.500Z,78.3477
2023-05-14T00:02:53.943Z,78.3264
2023-05-14T00:03:55.321Z,78.5644
2023-05-14T00:04:56.663Z,78.5511
2023-05-14T00:05:58.109Z,78.9845
2023-05-14T00:06:59.626Z,78.9719
2023-05-14T00:08:01.001Z,79.1046
2023-05-14T00:09:02.356Z,78.9355
2023-05-14T00:10:03.832Z,78.8643
2023-05-14T00:11:05.205Z,78.5189
2023-05-14T00:12:06.742Z,78.4359
2023-05-14T00:13:08.143Z,78.4576
2023-05-14T00:14:09.513Z,78.7470
2023-05-14T00:15:10.872Z,78.9812
2023-05-14T00:16:12.398Z,78.9734
2023-05-14T00:17:13.769Z,78.9512
2023-05-14T00:18:15.251Z,79.0244
2023-05-14T00:19:16.671Z,78.9603
2023-05-14T00:20:18.117Z,78.8208
2023-05-14T00:21:19.393Z,78.5526
2023-05-14T00:22:20.897Z,78.4161
2023-05-14T00:23:22.351Z,78.4300
2023-05-14T00:24:23.719Z,78.7957
2023-05-14T00:25:25.085Z,78.8986
2023-05-14T00:26:26.631Z,78.5721
2023-05-14T00:27:28.064Z,78.7597
2023-05-14T00:28:29.485Z,78.8390
2023-05-14T00:29:30.891Z,78.4482
2023-05-14T00:30:32.254Z,78.5527
2023-05-14T00:31:33.813Z,78.4292
2023-05-14T00:32:35.144Z,78.5884
2023-05-14T00:33:36.560Z,78.8010
2023-05-14T00:34:37.954Z,78.7833
2023-05-14T00:35:39.401Z,78.8715
2023-05-14T00:36:40.816Z,79.1367
2023-05-14T00:37:42.282Z,78.9767
2023-05-14T00:38:43.615Z,78.9395
2023-05-14T00:39:45.080Z,78.8655
2023-05-14T00:40:46.472Z,78.6101
2023-05-14T00:41:47.840Z,78.6286
2023-05-14T00:42:49.271Z,78.6767
2023-05-14T00:43:50.834Z,78.8239
2023-05-14T00:44:52.183Z,78.8360
2023-05-14T00:45:53.678Z,78.6625
2023-05-14T00:46:55.097Z,78.7290
2023-05-14T00:47:56.519Z,78.2784
2023-05-14T00:48:57.928Z,78.2141
2023-05-14T00:49:59.349Z,78.6598
2023-05-14T00:51:00.739Z,78.5371
2023-05-14T00:52:02.200Z,78.6047
2023-05-14T00:53:03.643Z,78.5080
2023-05-14T00:54:05.805Z,78.7081
2023-05-14T00:55:06.584Z,78.8388
2023-05-14T00:56:07.841Z,78.8809
2023-05-14T00:57:09.307Z,78.3960
2023-05-14T00:58:10.742Z,78.3716
2023-05-14T00:59:12.193Z,78.3436
2023-05-14T01:00:13.500Z,78.2897
2023-05-14T01:01:14.980Z,78.6332
2023-05-14T01:02:16.479Z,78.7772
2023-05-14T01:03:18.007Z,78.8586
2023-05-14T01:04:19.273Z,78.9409
2023-05-14T01:05:20.755Z,78.7529
2023-05-14T01:06:22.090Z,78.7762
2023-05-14T01:07:23.520Z,78.4436
2023-05-14T01:08:25.046Z,78.8757
2023-05-14T01:09:26.397Z,78.4542
2023-05-14T01:10:27.810Z,78.4206
2023-05-14T01:11:29.282Z,78.6182
2023-05-14T01:12:30.701Z,78.7171
2023-05-14T01:13:32.049Z,78.5154
2023-05-14T01:14:33.476Z,78.7984
2023-05-14T01:15:34.903Z,78.5000
2023-05-14T01:16:36.382Z,78.6756
2023-05-14T01:17:37.811Z,78.5312
2023-05-14T01:18:39.288Z,78.2488
2023-05-14T01:19:40.664Z,78.4482
2023-05-14T01:20:42.071Z,78.2865
2023-05-14T01:21:43.458Z,78.4474
2023-05-14T01:22:44.943Z,78.5126
2023-05-14T01:23:46.324Z,78.4871
2023-05-14T01:24:47.733Z,78.5066
2023-05-14T01:25:49.222Z,78.6303
2023-05-14T01:26:50.527Z,78.6219
2023-05-14T01:27:52.109Z,78.4998
2023-05-14T01:28:53.416Z,78.5634
2023-05-14T01:29:54.833Z,78.7287
2023-05-14T01:30:56.407Z,78.4743
2023-05-14T01:31:58.906Z,78.4153
2023-05-14T01:32:59.197Z,78.4222
2023-05-14T01:34:00.612Z,78.3818
2023-05-14T01:35:02.084Z,78.7427
2023-05-14T01:36:04.370Z,78.5025
2023-05-14T01:37:04.952Z,78.6563
2023-05-14T01:38:06.408Z,78.4617
2023-05-14T01:39:07.788Z,78.0021
2023-05-14T01:40:09.143Z,78.2673
2023-05-14T01:41:10.634Z,78.3170
2023-05-14T01:42:12.064Z,78.4485
2023-05-14T01:43:13.489Z,78.6777
2023-05-14T01:44:14.898Z,78.6072
2023-05-14T01:45:16.286Z,78.5941
2023-05-14T01:46:17.808Z,78.4314
2023-05-14T01:47:19.886Z,78.2108
2023-05-14T01:48:20.567Z,78.5628
2023-05-14T01:49:21.958Z,78.5570
2023-05-14T01:50:23.689Z,78.2110
2023-05-14T01:51:24.853Z,78.2614
2023-05-14T01:52:26.283Z,78.4503
2023-05-14T01:53:27.631Z,78.3409
2023-05-14T01:54:29.144Z,78.4531
2023-05-14T01:55:30.472Z,78.5570
2023-05-14T01:56:31.959Z,78.4017
2023-05-14T01:57:33.446Z,78.4949
2023-05-14T01:58:34.757Z,78.2388
2023-05-14T01:59:36.118Z,78.2515
2023-05-14T02:00:37.614Z,78.4701
2023-05-14T02:01:39.131Z,78.3839
2023-05-14T02:02:40.476Z,78.4891
2023-05-14T02:03:42.006Z,78.3022
2023-05-14T02:04:43.321Z,78.5184
2023-05-14T02:05:44.686Z,78.3789
2023-05-14T02:06:46.852Z,78.3111
2023-05-14T02:07:47.669Z,78.2463
2023-05-14T02:08:48.977Z,78.3690
2023-05-14T02:09:50.473Z,78.0383
2023-05-14T02:10:51.823Z,78.4476
2023-05-14T02:11:53.353Z,78.3999
2023-05-14T02:12:54.685Z,78.2642
2023-05-14T02:13:56.162Z,78.4693
2023-05-14T02:14:57.613Z,78.4083
2023-05-14T02:15:59.121Z,77.9148
2023-05-14T02:17:00.429Z,77.9653
2023-05-14T02:18:01.993Z,78.1964
2023-05-14T02:19:03.378Z,78.3132
2023-05-14T02:20:04.677Z,78.2212
2023-05-14T02:21:06.080Z,78.5206
2023-05-14T02:22:07.569Z,78.5131
2023-05-14T02:23:08.932Z,78.5773
2023-05-14T02:24:10.314Z,78.4210
2023-05-14T02:25:11.778Z,78.3908
2023-05-14T02:26:13.253Z,78.5329
2023-05-14T02:27:14.776Z,78.4580
2023-05-14T02:28:16.047Z,77.9870
2023-05-14T02:29:17.483Z,78.0509
2023-05-14T02:30:18.859Z,78.2492
2023-05-14T02:31:20.395Z,78.3247
2023-05-14T02:32:21.827Z,78.1927
2023-05-14T02:33:23.322Z,78.2039
2023-05-14T02:34:24.599Z,78.2306
2023-05-14T02:35:26.068Z,78.4123
2023-05-14T02:36:27.420Z,78.3424
2023-05-14T02:37:28.992Z,78.1485
2023-05-14T02:38:30.292Z,77.7303
2023-05-14T02:39:31.643Z,78.2916
2023-05-14T02:40:33.107Z,78.2323
2023-05-14T02:41:34.593Z,78.1873
2023-05-14T02:42:35.990Z,78.0611
2023-05-14T02:43:37.440Z,78.0466
2023-05-14T02:44:38.722Z,78.1493
2023-05-14T02:45:40.306Z,78.1616
2023-05-14T02:46:41.719Z,78.1380
2023-05-14T02:47:43.945Z,77.6886
2023-05-14T02:48:45.333Z,77.8479
2023-05-14T02:49:45.831Z,77.9833
2023-05-14T02:50:47.420Z,77.9382
2023-05-14T02:51:48.778Z,78.1330
2023-05-14T02:52:50.293Z,77.6989
2023-05-14T02:53:51.696Z,77.9181
2023-05-14T02:54:53.814Z,77.9292
2023-05-14T02:55:54.546Z,77.8398
2023-05-14T02:56:55.908Z,77.7847
2023-05-14T02:57:57.356Z,77.8153
2023-05-14T02:58:59.417Z,77.7502
2023-05-14T03:00:00.052Z,77.7068
2023-05-14T03:01:01.647Z,77.8625
2023-05-14T03:02:03.093Z,78.1095
2023-05-14T03:03:04.467Z,77.6747
2023-05-14T03:04:05.899Z,77.2792
2023-05-14T03:05:07.286Z,77.5510
2023-05-14T03:06:08.728Z,77.6246
2023-05-14T03:07:10.116Z,77.7107
2023-05-14T03:08:11.449Z,77.7618
2023-05-14T03:09:12.956Z,77.6596
2023-05-14T03:10:14.407Z,77.7488
2023-05-14T03:11:15.792Z,77.6267
2023-05-14T03:12:17.246Z,77.5797
2023-05-14T03:13:18.552Z,77.5443
2023-05-14T03:14:20.063Z,77.1897
2023-05-14T03:15:21.414Z,77.2815
2023-05-14T03:16:22.930Z,77.2313
2023-05-14T03:17:24.274Z,77.7038
2023-05-14T03:18:25.855Z,77.4942
2023-05-14T03:19:27.160Z,77.5139
2023-05-14T03:20:28.593Z,77.4531
2023-05-14T03:21:30.020Z,77.6689
2023-05-14T03:22:31.425Z,77.7229
2023-05-14T03:23:33.366Z,77.5420
2023-05-14T03:24:34.289Z,77.0259
2023-05-14T03:25:35.702Z,77.3934
2023-05-14T03:26:37.076Z,77.3561
2023-05-14T03:27:38.551Z,77.4165
2023-05-14T03:28:39.977Z,77.1393
2023-05-14T03:29:41.416Z,77.3485
2023-05-14T03:30:42.920Z,77.4782
2023-05-14T03:31:44.240Z,77.7186
2023-05-14T03:32:45.642Z,77.5043
2023-05-14T03:33:47.048Z,77.6118
2023-05-14T03:34:48.486Z,77.6595
2023-05-14T03:35:49.920Z,77.4121
2023-05-14T03:36:51.283Z,77.0100
2023-05-14T03:37:52.753Z,77.3453
2023-05-14T03:38:54.180Z,77.4626
2023-05-14T03:39:55.668Z,77.7797
2023-05-14T03:40:57.014Z,77.3620
2023-05-14T03:41:58.441Z,77.5398
2023-05-14T03:42:59.827Z,77.5762
2023-05-14T03:44:01.320Z,77.4079
2023-05-14T03:45:02.760Z,77.0665
2023-05-14T03:46:04.139Z,77.6547
2023-05-14T03:47:05.605Z,77.2882
2023-05-14T03:48:07.102Z,76.8856
2023-05-14T03:49:08.482Z,77.3293
2023-05-14T03:50:09.958Z,77.0913
2023-05-14T03:51:11.259Z,77.3916
2023-05-14T03:52:12.695Z,77.5687
2023-05-14T03:53:14.093Z,77.7948
2023-05-14T03:54:15.549Z,77.7818
2023-05-14T03:55:17.024Z,77.8100
2023-05-14T03:56:18.285Z,77.3967
2023-05-14T03:57:19.756Z,77.3782
2023-05-14T03:58:21.237Z,77.6419
2023-05-14T03:59:22.651Z,77.8546
2023-05-14T04:00:24.333Z,77.6542
2023-05-14T04:01:25.505Z,77.7919
2023-05-14T04:02:27.046Z,77.6922
2023-05-14T04:03:28.407Z,77.3396
2023-05-14T04:04:29.828Z,77.4625
2023-05-14T04:05:31.904Z,77.7023
2023-05-14T04:06:32.607Z,77.5573
2023-05-14T04:07:34.014Z,77.8461
2023-05-14T04:08:35.509Z,77.0334
2023-05-14T04:09:36.938Z,77.1177
2023-05-14T04:10:38.448Z,77.4163
2023-05-14T04:11:39.792Z,77.1127
2023-05-14T04:12:41.184Z,77.1788
2023-05-14T04:13:42.569Z,77.6016
2023-05-14T04:14:44.046Z,77.6103
2023-05-14T04:15:46.354Z,77.5884
2023-05-14T04:16:46.980Z,77.7340
2023-05-14T04:17:48.350Z,77.5857
2023-05-14T04:18:49.780Z,77.5111
2023-05-14T04:19:51.141Z,77.2974
2023-05-14T04:20:52.609Z,77.4408
2023-05-14T04:21:54.033Z,77.4338
2023-05-14T04:22:55.352Z,77.4422
2023-05-14T04:23:56.871Z,77.1969
2023-05-14T04:24:58.393Z,77.3749
2023-05-14T04:25:59.681Z,77.4168
2023-05-14T04:27:01.150Z,77.6173
2023-05-14T04:28:02.514Z,77.5287
2023-05-14T04:29:03.884Z,77.6531
2023-05-14T04:30:05.380Z,77.7186
2023-05-14T04:31:06.831Z,77.6306
2023-05-14T04:32:08.307Z,77.6790
2023-05-14T04:33:09.748Z,77.7371
2023-05-14T04:34:11.076Z,77.7564
2023-05-14T04:35:12.561Z,77.9265
2023-05-14T04:36:13.957Z,77.5676
2023-05-14T04:37:15.289Z,77.6858
2023-05-14T04:38:16.762Z,77.8941
2023-05-14T04:39:18.217Z,77.6373
2023-05-14T04:40:19.704Z,77.6699
2023-05-14T04:41:21.145Z,77.8518
2023-05-14T04:42:22.443Z,77.6635
2023-05-14T04:43:23.934Z,77.7216
2023-05-14T04:44:25.315Z,77.6285
2023-05-14T04:45:26.819Z,77.8694
2023-05-14T04:46:28.369Z,77.7812
2023-05-14T04:47:29.762Z,77.6613
2023-05-14T04:48:31.052Z,77.7549
2023-05-14T04:49:32.534Z,77.7120
2023-05-14T04:50:33.900Z,77.9819
2023-05-14T04:51:35.386Z,77.9855
2023-05-14T04:52:36.749Z,77.8407
2023-05-14T04:53:38.217Z,77.8412
2023-05-14T04:54:39.716Z,78.0141
2023-05-14T04:55:40.958Z,77.5854
2023-05-14T04:56:42.582Z,77.6200
2023-05-14T04:57:43.901Z,77.4342
2023-05-14T04:58:45.284Z,78.0416
2023-05-14T04:59:46.770Z,77.9177
2023-05-14T05:00:48.253Z,77.6839
2023-05-14T05:01:49.698Z,77.8625
2023-05-14T05:02:51.029Z,78.0444
2023-05-14T05:03:52.368Z,78.3443
2023-05-14T05:04:53.880Z,78.3624
2023-05-14T05:05:55.322Z,77.4020
2023-05-14T05:06:56.745Z,77.3657
2023-05-14T05:07:58.188Z,78.4512
2023-05-14T05:09:01.845Z,78.2506
2023-05-14T05:10:00.991Z,77.9958
2023-05-14T05:11:02.464Z,77.9733
2023-05-14T05:12:03.866Z,78.1825
2023-05-14T05:13:05.376Z,78.1004
2023-05-14T05:14:06.826Z,77.4554
2023-05-14T05:15:08.137Z,76.4082
2023-05-14T05:16:09.723Z,78.2672
2023-05-14T05:17:11.012Z,78.3897
2023-05-14T05:18:12.467Z,78.1787
2023-05-14T05:19:13.981Z,78.1974
2023-05-14T05:20:15.377Z,78.2023
2023-05-14T05:21:16.650Z,78.0656
2023-05-14T05:22:18.947Z,76.4921
2023-05-14T05:23:19.491Z,77.8228
2023-05-14T05:24:20.962Z,79.1319
2023-05-14T05:25:22.389Z,78.8941
2023-05-14T05:26:23.802Z,78.8990
2023-05-14T05:27:25.237Z,78.9648
2023-05-14T05:28:26.664Z,78.7787
2023-05-14T05:29:28.031Z,78.7965
2023-05-14T05:30:29.475Z,77.6342
2023-05-14T05:31:30.970Z,77.1792
2023-05-14T05:32:32.487Z,78.9879
2023-05-14T05:33:33.839Z,79.3542
2023-05-14T05:34:35.255Z,79.1022
2023-05-14T05:35:36.710Z,78.6644
2023-05-14T05:36:38.039Z,78.4998
2023-05-14T05:37:39.565Z,78.6705
2023-05-14T05:38:40.973Z,78.5007
2023-05-14T05:39:42.390Z,78.4375
2023-05-14T05:40:43.774Z,78.4593
2023-05-14T05:41:45.353Z,78.5567
2023-05-14T05:42:46.613Z,78.4471
2023-05-14T05:43:48.190Z,76.2058
2023-05-14T05:44:49.591Z,76.9736
2023-05-14T05:45:51.002Z,78.5117
2023-05-14T05:46:52.386Z,79.8916
2023-05-14T05:47:53.874Z,79.6060
2023-05-14T05:48:55.130Z,79.4906
2023-05-14T05:49:56.612Z,79.1914
2023-05-14T05:50:57.986Z,79.2012
2023-05-14T05:51:59.459Z,77.5743
2023-05-14T05:53:00.934Z,77.2547
2023-05-14T05:54:02.470Z,78.4712
2023-05-14T05:55:03.781Z,77.7842
2023-05-14T05:56:05.123Z,78.0596
2023-05-14T05:57:06.578Z,78.1672
2023-05-14T05:58:08.030Z,79.0210
2023-05-14T05:59:09.468Z,79.3499
2023-05-14T06:00:10.869Z,79.1138
2023-05-14T06:01:12.255Z,77.7084
2023-05-14T06:02:13.773Z,78.9337
2023-05-14T06:03:15.163Z,78.8508
2023-05-14T06:04:16.609Z,78.5006
2023-05-14T06:05:18.007Z,78.5569
2023-05-14T06:06:19.535Z,78.5888
2023-05-14T06:07:20.794Z,78.4530
2023-05-14T06:08:22.273Z,78.0958
2023-05-14T06:09:23.664Z,76.9643
2023-05-14T06:10:25.374Z,75.2930
2023-05-14T06:11:26.497Z,72.3829
2023-05-14T06:12:27.953Z,68.6295
2023-05-14T06:13:29.350Z,68.0062
2023-05-14T06:14:30.829Z,68.6634
2023-05-14T06:15:32.165Z,69.0444
2023-05-14T06:16:33.697Z,68.3888
2023-05-14T06:17:35.063Z,67.2224
2023-05-14T06:18:36.582Z,66.8641
2023-05-14T06:19:37.969Z,65.5364
2023-05-14T06:20:39.389Z,65.5522
2023-05-14T06:21:40.680Z,66.7249
2023-05-14T06:22:42.122Z,67.9671
2023-05-14T06:23:43.625Z,68.1817
2023-05-14T06:24:45.017Z,66.8371
2023-05-14T06:25:46.570Z,65.6583
2023-05-14T06:26:47.849Z,64.7805
2023-05-14T06:27:49.258Z,64.6444
2023-05-14T06:28:50.624Z,63.6919
2023-05-14T06:29:52.069Z,62.5218
2023-05-14T06:30:53.514Z,62.9041
2023-05-14T06:31:54.999Z,64.7395
2023-05-14T06:32:56.335Z,65.4955
2023-05-14T06:33:57.645Z,65.2755
2023-05-14T06:34:59.183Z,64.8789
2023-05-14T06:36:00.570Z,62.9844
2023-05-14T06:37:01.973Z,62.8020
2023-05-14T06:38:03.372Z,65.3467
2023-05-14T06:39:04.805Z,67.1119
2023-05-14T06:40:06.269Z,67.2101
2023-05-14T06:41:07.670Z,66.5779
2023-05-14T06:42:09.027Z,65.0581
2023-05-14T06:43:10.585Z,62.5960
2023-05-14T06:44:11.917Z,63.5140
2023-05-14T06:45:13.398Z,66.5744
2023-05-14T06:46:14.760Z,67.8615
2023-05-14T06:47:16.213Z,67.4927
2023-05-14T06:48:17.549Z,66.3329
2023-05-14T06:49:19.024Z,63.4136
2023-05-14T06:50:20.518Z,63.5789
2023-05-14T06:51:21.924Z,66.5579
2023-05-14T06:52:23.353Z,68.3759
2023-05-14T06:53:24.797Z,68.1608
2023-05-14T06:54:26.191Z,67.0081
2023-05-14T06:55:27.602Z,64.0973
2023-05-14T06:56:28.947Z,63.8243
2023-05-14T06:57:30.505Z,66.5652
2023-05-14T06:58:31.769Z,67.9542
2023-05-14T06:59:33.245Z,68.0706
2023-05-14T07:00:34.710Z,65.8892
2023-05-14T07:01:36.234Z,63.8274
2023-05-14T07:02:37.401Z,65.8685
2023-05-14T07:03:39.017Z,68.0107
2023-05-14T07:04:40.392Z,68.4640
2023-05-14T07:05:41.842Z,66.6513
2023-05-14T07:06:43.187Z,64.5296
2023-05-14T07:07:44.629Z,66.1973
2023-05-14T07:08:46.030Z,68.2335
2023-05-14T07:09:47.464Z,68.8470
2023-05-14T07:10:48.929Z,66.2859
2023-05-14T07:11:50.329Z,64.2130
2023-05-14T07:12:51.725Z,66.1756
2023-05-14T07:13:53.244Z,68.0163
2023-05-14T07:14:54.551Z,68.4637
2023-05-14T07:15:56.089Z,65.7059
2023-05-14T07:16:57.523Z,66.5243
2023-05-14T07:17:58.907Z,70.5518
2023-05-14T07:19:00.331Z,73.1369
2023-05-14T07:20:01.833Z,74.2508
2023-05-14T07:21:03.168Z,72.3251
2023-05-14T07:22:04.492Z,71.6185
2023-05-14T07:23:05.902Z,73.9291
2023-05-14T07:24:07.444Z,75.7392
2023-05-14T07:25:08.782Z,76.6190
2023-05-14T07:26:10.287Z,75.0616
2023-05-14T07:27:11.770Z,74.1044
2023-05-14T07:28:13.126Z,75.8563
2023-05-14T07:29:14.406Z,77.2145
2023-05-14T07:30:16.077Z,77.6088
2023-05-14T07:31:17.360Z,77.7002
2023-05-14T07:32:18.781Z,76.9360
2023-05-14T07:33:20.210Z,74.2582
2023-05-14T07:34:21.585Z,74.8900
2023-05-14T07:35:23.022Z,77.0608
2023-05-14T07:36:24.496Z,78.1946
2023-05-14T07:37:25.941Z,78.5365
2023-05-14T07:38:27.350Z,78.5181
2023-05-14T07:39:28.765Z,77.7759
2023-05-14T07:40:30.140Z,75.8352
2023-05-14T07:41:31.661Z,74.7225
2023-05-14T07:42:36.588Z,76.6607
2023-05-14T07:43:34.390Z,78.0104
2023-05-14T07:44:35.834Z,78.6370
2023-05-14T07:45:37.288Z,78.3837
2023-05-14T07:46:38.694Z,77.6422
2023-05-14T07:47:40.152Z,77.4769
2023-05-14T07:48:41.528Z,75.3898
2023-05-14T07:49:42.919Z,75.5692
2023-05-14T07:50:44.358Z,77.6371
2023-05-14T07:51:45.836Z,78.4385
2023-05-14T07:52:47.231Z,78.4467
2023-05-14T07:53:48.624Z,78.1544
2023-05-14T07:54:50.757Z,77.8032
2023-05-14T07:55:51.436Z,77.3990
2023-05-14T07:56:52.889Z,75.6451
2023-05-14T07:57:54.356Z,75.4159
2023-05-14T07:58:55.693Z,77.5229
2023-05-14T07:59:57.073Z,78.3220
2023-05-14T08:00:58.555Z,78.2315
2023-05-14T08:02:00.067Z,77.3699
2023-05-14T08:03:01.459Z,77.0202
2023-05-14T08:04:02.927Z,76.8022
2023-05-14T08:05:04.257Z,75.0672
2023-05-14T08:06:05.728Z,74.5158
2023-05-14T08:07:07.122Z,76.3786
2023-05-14T08:08:08.571Z,77.5494
2023-05-14T08:09:09.894Z,77.7786
2023-05-14T08:10:11.352Z,77.3011
2023-05-14T08:11:12.753Z,77.6304
2023-05-14T08:12:14.222Z,77.0201
2023-05-14T08:13:15.652Z,74.8119
2023-05-14T08:14:16.952Z,74.7540
2023-05-14T08:15:18.434Z,76.6336
2023-05-14T08:16:19.949Z,77.7099
2023-05-14T08:17:21.348Z,77.8271
2023-05-14T08:18:22.765Z,77.1686
2023-05-14T08:19:24.168Z,76.7759
2023-05-14T08:20:25.886Z,76.2882
2023-05-14T08:21:26.969Z,74.1557
2023-05-14T08:22:28.427Z,74.5212
2023-05-14T08:23:29.885Z,76.2116
2023-05-14T08:24:31.328Z,77.1423
2023-05-14T08:25:32.713Z,76.7406
2023-05-14T08:26:34.216Z,75.9174
2023-05-14T08:27:35.597Z,75.6404
2023-05-14T08:28:37.079Z,74.2997
2023-05-14T08:29:38.454Z,73.1564
2023-05-14T08:30:39.806Z,74.6031
2023-05-14T08:31:41.304Z,76.2146
2023-05-14T08:32:42.733Z,77.0457
2023-05-14T08:33:44.173Z,76.6878
2023-05-14T08:34:45.623Z,75.7698
2023-05-14T08:35:46.961Z,75.0555
2023-05-14T08:36:48.401Z,71.7588
2023-05-14T08:37:49.819Z,72.3532
2023-05-14T08:38:51.253Z,75.1433
2023-05-14T08:39:52.680Z,76.4632
2023-05-14T08:40:54.116Z,76.9802
2023-05-14T08:41:55.462Z,76.8062
2023-05-14T08:42:56.960Z,76.1636
2023-05-14T08:43:58.381Z,73.8762
2023-05-14T08:44:59.755Z,71.0108
2023-05-14T08:46:01.217Z,73.1090
2023-05-14T08:47:02.647Z,75.9074
2023-05-14T08:48:04.091Z,76.6363
2023-05-14T08:49:05.593Z,77.1860
2023-05-14T08:50:06.864Z,77.5300
2023-05-14T08:51:08.250Z,77.0372
2023-05-14T08:52:09.640Z,73.9138
2023-05-14T08:53:11.109Z,72.1288
2023-05-14T08:54:12.481Z,74.6911
2023-05-14T08:55:14.051Z,76.2000
2023-05-14T08:56:15.336Z,76.8546
2023-05-14T08:57:16.799Z,76.9695
2023-05-14T08:58:18.136Z,76.7049
2023-05-14T08:59:19.713Z,73.0945
2023-05-14T09:00:21.164Z,72.7736
2023-05-14T09:01:22.582Z,75.3930
2023-05-14T09:02:23.937Z,76.4406
2023-05-14T09:03:25.432Z,77.1260
2023-05-14T09:04:26.818Z,77.2781
2023-05-14T09:05:28.253Z,77.0091
2023-05-14T09:06:29.688Z,73.5896
2023-05-14T09:07:31.024Z,71.7286
2023-05-14T09:08:32.397Z,74.3152
2023-05-14T09:09:33.922Z,76.2175
2023-05-14T09:10:35.344Z,77.2413
2023-05-14T09:11:36.692Z,77.6907
2023-05-14T09:12:38.176Z,78.1233
2023-05-14T09:13:39.574Z,77.4858
2023-05-14T09:14:41.004Z,73.6493
2023-05-14T09:15:42.360Z,73.4996
2023-05-14T09:16:43.886Z,76.1516
2023-05-14T09:17:45.320Z,77.3069
2023-05-14T09:18:46.810Z,77.7450
2023-05-14T09:19:48.205Z,77.9538
2023-05-14T09:20:49.497Z,77.6856
2023-05-14T09:21:50.932Z,75.6561
2023-05-14T09:22:52.364Z,72.0726
2023-05-14T09:23:53.796Z,73.7533
2023-05-14T09:24:55.256Z,76.5254
2023-05-14T09:25:56.748Z,77.6230
2023-05-14T09:26:58.042Z,78.2322
2023-05-14T09:27:59.482Z,78.4566
2023-05-14T09:29:00.764Z,78.0354
2023-05-14T09:30:02.413Z,77.0493
2023-05-14T09:31:03.869Z,73.3746
2023-05-14T09:32:05.353Z,74.0276
2023-05-14T09:33:06.591Z,76.6954
2023-05-14T09:34:08.038Z,78.0233
2023-05-14T09:35:09.520Z,78.7643
2023-05-14T09:36:11.038Z,79.0016
2023-05-14T09:37:12.401Z,78.7367
2023-05-14T09:38:13.869Z,77.9196
2023-05-14T09:39:15.272Z,74.8062
2023-05-14T09:40:16.832Z,73.4188
2023-05-14T09:41:18.108Z,76.2787
2023-05-14T09:42:19.530Z,78.0292
2023-05-14T09:43:20.978Z,78.7449
2023-05-14T09:44:22.374Z,79.1798
2023-05-14T09:45:23.813Z,78.9920
2023-05-14T09:46:25.294Z,78.3145
2023-05-14T09:47:26.706Z,77.8456
2023-05-14T09:48:28.143Z,74.3087
2023-05-14T09:49:29.492Z,74.0706
2023-05-14T09:50:30.976Z,76.5002
2023-05-14T09:51:32.399Z,77.8315
2023-05-14T09:52:33.832Z,78.3648
2023-05-14T09:53:35.287Z,78.3082
2023-05-14T09:54:36.613Z,77.5785
2023-05-14T09:55:38.106Z,76.4100
2023-05-14T09:56:39.627Z,72.4878
2023-05-14T09:57:40.987Z,73.4801
2023-05-14T09:58:42.265Z,76.1626
2023-05-14T09:59:43.837Z,77.5679
2023-05-14T10:00:45.239Z,77.9574
2023-05-14T10:01:46.707Z,77.9781
2023-05-14T10:02:48.144Z,77.8072
2023-05-14T10:03:49.644Z,76.1654
2023-05-14T10:04:50.963Z,71.7469
2023-05-14T10:05:52.462Z,73.0669
2023-05-14T10:06:53.837Z,76.0377
2023-05-14T10:07:55.333Z,76.8125
2023-05-14T10:08:56.613Z,77.2926
2023-05-14T10:09:59.590Z,77.2532
2023-05-14T10:10:59.529Z,76.8952
2023-05-14T10:12:00.965Z,72.6294
2023-05-14T10:13:02.479Z,71.4904
2023-05-14T10:14:03.780Z,74.4536
2023-05-14T10:15:05.158Z,75.8337
2023-05-14T10:16:06.661Z,76.7185
2023-05-14T10:17:08.436Z,77.1528
2023-05-14T10:18:09.710Z,77.0794
2023-05-14T10:19:10.931Z,73.5065
2023-05-14T10:20:12.426Z,70.8107
2023-05-14T10:21:13.767Z,73.8121
2023-05-14T10:22:15.197Z,75.5508
2023-05-14T10:23:16.626Z,76.4838
2023-05-14T10:24:18.116Z,77.1622
2023-05-14T10:25:19.447Z,77.5917
2023-05-14T10:26:23.087Z,75.5984
2023-05-14T10:27:22.380Z,71.3378
2023-05-14T10:28:23.784Z,73.1546
2023-05-14T10:29:25.246Z,75.2524
2023-05-14T10:30:26.889Z,75.9432
2023-05-14T10:31:28.107Z,76.6380
2023-05-14T10:32:29.622Z,75.5594
2023-05-14T10:33:30.921Z,70.8626
2023-05-14T10:34:32.382Z,71.5925
2023-05-14T10:35:33.603Z,74.3331
2023-05-14T10:36:35.190Z,75.7203
2023-05-14T10:37:36.630Z,76.4025
2023-05-14T10:38:38.067Z,76.6005
2023-05-14T10:39:39.505Z,73.4162
2023-05-14T10:40:40.864Z,70.1060
2023-05-14T10:41:42.288Z,72.1808
2023-05-14T10:42:43.734Z,74.7972
2023-05-14T10:43:45.167Z,75.9425
2023-05-14T10:44:46.611Z,76.6027
2023-05-14T10:45:47.949Z,75.6091
2023-05-14T10:46:49.467Z,71.4017
2023-05-14T10:47:51.045Z,71.9359
2023-05-14T10:48:52.337Z,74.9860
2023-05-14T10:49:53.700Z,76.1660
2023-05-14T10:50:55.209Z,76.7386
2023-05-14T10:51:56.527Z,77.0627
2023-05-14T10:52:57.941Z,74.0106
2023-05-14T10:53:59.371Z,70.8176
2023-05-14T10:55:03.189Z,73.1154
2023-05-14T10:56:02.250Z,75.4244
2023-05-14T10:57:03.531Z,76.0364
2023-05-14T10:58:05.211Z,76.5535
2023-05-14T10:59:06.663Z,76.4887
2023-05-14T11:00:08.664Z,72.1551
2023-05-14T11:01:09.343Z,70.7583
2023-05-14T11:02:10.868Z,73.8218
2023-05-14T11:03:12.417Z,75.1387
2023-05-14T11:04:13.795Z,76.0351
2023-05-14T11:05:15.069Z,76.4444
2023-05-14T11:06:16.541Z,73.6601
2023-05-14T11:07:17.934Z,71.0186
2023-05-14T11:08:19.358Z,73.6441
2023-05-14T11:09:20.812Z,75.9371
2023-05-14T11:10:22.510Z,76.9997
2023-05-14T11:11:23.615Z,77.4899
2023-05-14T11:12:25.010Z,76.0605
2023-05-14T11:13:26.291Z,72.7063
2023-05-14T11:14:27.887Z,73.5422
2023-05-14T11:15:29.342Z,75.8394
2023-05-14T11:16:30.691Z,76.9619
2023-05-14T11:17:32.202Z,77.7095
2023-05-14T11:18:33.643Z,78.0060
2023-05-14T11:19:35.015Z,75.7061
2023-05-14T11:20:36.362Z,73.0106
2023-05-14T11:21:37.879Z,75.0705
2023-05-14T11:22:39.186Z,77.1045
2023-05-14T11:23:40.723Z,77.9698
2023-05-14T11:24:42.286Z,78.3459
2023-05-14T11:25:43.602Z,78.6632
2023-05-14T11:26:44.930Z,76.8980
2023-05-14T11:27:46.354Z,73.9351
2023-05-14T11:28:47.776Z,75.4018
2023-05-14T11:29:49.210Z,77.1794
2023-05-14T11:30:50.676Z,78.0403
2023-05-14T11:31:52.164Z,78.2392
2023-05-14T11:32:53.399Z,78.2028
2023-05-14T11:33:54.927Z,75.3046
2023-05-14T11:34:56.343Z,74.2670
2023-05-14T11:35:57.798Z,76.2068
2023-05-14T11:36:59.297Z,77.2681
2023-05-14T11:38:00.654Z,77.7714
2023-05-14T11:39:01.992Z,77.7607
2023-05-14T11:40:03.503Z,75.5736
2023-05-14T11:41:04.831Z,74.2574
2023-05-14T11:42:06.290Z,75.8827
2023-05-14T11:43:07.677Z,77.2730
2023-05-14T11:44:09.269Z,77.5570
2023-05-14T11:45:10.636Z,77.1633
2023-05-14T11:46:12.036Z,73.0084
2023-05-14T11:47:13.357Z,72.6050
2023-05-14T11:48:14.852Z,75.1666
2023-05-14T11:49:16.184Z,76.4842
2023-05-14T11:50:17.652Z,77.1649
2023-05-14T11:51:19.183Z,77.2331
2023-05-14T11:52:20.542Z,76.1419
2023-05-14T11:53:22.093Z,72.8459
2023-05-14T11:54:23.308Z,73.0726
2023-05-14T11:55:24.771Z,75.0497
2023-05-14T11:56:26.301Z,76.0939
2023-05-14T11:57:27.664Z,76.6518
2023-05-14T11:58:29.068Z,76.3793
2023-05-14T11:59:30.434Z,73.7405
2023-05-14T12:00:31.882Z,73.2275
2023-05-14T12:01:33.338Z,73.3637
2023-05-14T12:02:34.863Z,74.8737
2023-05-14T12:03:36.103Z,76.7019
2023-05-14T12:04:37.613Z,77.7699
2023-05-14T12:05:39.004Z,78.3032
2023-05-14T12:06:40.374Z,76.5614
2023-05-14T12:07:42.027Z,74.8598
2023-05-14T12:08:43.149Z,76.4288
2023-05-14T12:09:45.464Z,77.7763
2023-05-14T12:10:46.103Z,78.5801
2023-05-14T12:11:47.547Z,78.9247
2023-05-14T12:12:48.999Z,77.5787
2023-05-14T12:13:50.231Z,75.3231
2023-05-14T12:14:51.735Z,76.5050
2023-05-14T12:15:53.224Z,77.9897
2023-05-14T12:16:54.791Z,78.6084
2023-05-14T12:17:56.072Z,78.7648
2023-05-14T12:18:57.478Z,77.5622
2023-05-14T12:19:58.885Z,74.9214
2023-05-14T12:21:00.341Z,75.7200
2023-05-14T12:22:01.803Z,77.3856
2023-05-14T12:23:03.156Z,78.0265